Time,TemperatureF,DewpointF,PressureIn,WindDirection,WindDirectionDegrees,WindSpeedMPH,WindSpeedGustMPH,Humidity,HourlyPrecipIn,Conditions,Clouds,dailyrainin,SoftwareType,DateUTC
2013-10-09 00:01:00,48.0,46.1,30.38,NW,304,2.3,2.3,93,0.00,CLR,,0.00,WeatherDisplay:10.37,2013-10-09 04:01:00,
2013-10-09 00:03:00,47.7,45.8,30.38,WNW,284,2.3,2.3,93,0.00,CLR,,0.00,WeatherDisplay:10.37,2013-10-09 04:03:00,
2013-10-09 00:04:00,48.0,46.1,30.38,NW,304,2.4,2.4,93,0.00,CLR,,0.00,WeatherDisplay:10.37,2013-10-09 04:04:00,
2013-10-09 00:06:00,47.8,45.9,30.38,WNW,301,2.8,2.8,93,0.00,CLR,,0.00,WeatherDisplay:10.37,2013-10-09 04:06:00,
2013-10-09 00:11:00,47.8,45.9,30.38,NW,305,1.6,1.6,93,0.00,CLR,,0.00,WeatherDisplay:10.37,2013-10-09 04:11:00,
2013-10-09 00:12:00,47.8,45.9,30.38,NW,305,1.6,1.6,93,0.00,CLR,,0.00,WeatherDisplay:10.37,2013-10-09 04:12:00,
2013-10-09 00:15:00,47.7,46.1,30.38,WNW,294,2.5,2.5,94,0.00,CLR,,0.00,WeatherDisplay:10.37,2013-10-09 04:15:00,
2013-10-09 00:20:00,47.7,46.1,30.38,WNW,285,3.5,3.5,94,0.00,CLR,,0.00,WeatherDisplay:10.37,2013-10-09 04:20:00,
2013-10-09 00:25:00,47.5,45.9,30.38,NW,323,4.6,4.6,94,0.00,CLR,,0.00,WeatherDisplay:10.37,2013-10-09 04:25:00,
2013-10-09 00:30:00,47.7,46.1,30.38,WNW,292,2.8,2.8,94,0.00,CLR,,0.00,WeatherDisplay:10.37,2013-10-09 04:30:00,
2013-10-09 00:35:00,47.6,46.0,30.38,WNW,295,2.3,2.3,94,0.00,CLR,,0.00,WeatherDisplay:10.37,2013-10-09 04:35:00,
2013-10-09 00:40:00,47.4,45.8,30.38,NW,306,1.8,1.8,94,0.00,CLR,,0.00,WeatherDisplay:10.37,2013-10-09 04:40:00,
2013-10-09 00:45:00,47.5,45.9,30.38,WNW,291,1.6,1.6,94,0.00,CLR,,0.00,WeatherDisplay:10.37,2013-10-09 04:45:00,
2013-10-09 00:50:00,47.4,45.8,30.38,West,275,0.0,0.0,94,0.00,CLR,,0.00,WeatherDisplay:10.37,2013-10-09 04:50:00,
2013-10-09 00:55:00,47.3,45.7,30.38,West,275,0.0,0.0,94,0.00,CLR,,0.00,WeatherDisplay:10.37,2013-10-09 04:55:00,
2013-10-09 01:00:00,47.2,45.6,30.38,West,275,0.0,0.0,94,0.00,CLR,,0.00,WeatherDisplay:10.37,2013-10-09 05:00:00,
2013-10-09 01:05:00,47.2,45.6,30.38,West,275,0.0,0.0,94,0.00,CLR,,0.00,WeatherDisplay:10.37,2013-10-09 05:05:00,
2013-10-09 01:10:00,47.1,45.5,30.38,West,275,0.0,0.0,94,0.00,CLR,,0.00,WeatherDisplay:10.37,2013-10-09 05:10:00,
2013-10-09 01:15:00,47.1,45.5,30.38,West,275,0.0,0.0,94,0.00,CLR,,0.00,WeatherDisplay:10.37,2013-10-09 05:15:00,
2013-10-09 01:20:00,46.9,45.3,30.39,West,275,0.0,0.0,94,0.00,CLR,,0.00,WeatherDisplay:10.37,2013-10-09 05:20:00,
2013-10-09 01:25:00,46.9,45.3,30.39,West,275,0.0,0.0,94,0.00,CLR,,0.00,WeatherDisplay:10.37,2013-10-09 05:25:00,
2013-10-09 01:30:00,46.9,45.3,30.39,West,275,0.0,0.0,94,0.00,CLR,,0.00,WeatherDisplay:10.37,2013-10-09 05:30:00,
2013-10-09 01:35:00,46.9,45.3,30.39,West,275,0.0,0.0,94,0.00,CLR,,0.00,WeatherDisplay:10.37,2013-10-09 05:35:00,
2013-10-09 01:40:00,46.9,45.3,30.39,West,275,0.0,0.0,94,0.00,CLR,,0.00,WeatherDisplay:10.37,2013-10-09 05:40:00,
2013-10-09 01:45:00,47.0,45.4,30.39,West,275,0.0,0.0,94,0.00,CLR,,0.00,WeatherDisplay:10.37,2013-10-09 05:45:00,
2013-10-09 01:50:00,46.6,45.0,30.39,West,275,0.0,0.0,94,0.00,CLR,,0.00,WeatherDisplay:10.37,2013-10-09 05:50:00,
2013-10-09 01:55:00,46.7,45.1,30.39,West,275,0.0,0.0,94,0.00,CLR,,0.00,WeatherDisplay:10.37,2013-10-09 05:55:00,
2013-10-09 02:00:00,46.6,45.0,30.39,West,275,0.0,0.0,94,0.00,CLR,,0.00,WeatherDisplay:10.37,2013-10-09 06:00:00,
2013-10-09 02:05:00,46.5,44.9,30.39,West,275,0.0,0.0,94,0.00,CLR,,0.00,WeatherDisplay:10.37,2013-10-09 06:05:00,
2013-10-09 02:10:00,46.2,44.6,30.39,West,275,0.0,0.0,94,0.00,CLR,,0.00,WeatherDisplay:10.37,2013-10-09 06:10:00,
2013-10-09 02:15:00,46.2,44.6,30.39,West,275,0.0,0.0,94,0.00,CLR,,0.00,WeatherDisplay:10.37,2013-10-09 06:15:00,
2013-10-09 02:20:00,46.1,44.5,30.39,West,275,0.0,0.0,94,0.00,CLR,,0.00,WeatherDisplay:10.37,2013-10-09 06:20:00,
2013-10-09 02:25:00,46.0,44.4,30.39,West,275,0.0,0.0,94,0.00,CLR,,0.00,WeatherDisplay:10.37,2013-10-09 06:25:00,
2013-10-09 02:30:00,45.8,44.5,30.39,West,275,0.0,0.0,95,0.00,CLR,,0.00,WeatherDisplay:10.37,2013-10-09 06:30:00,
2013-10-09 02:35:00,45.8,44.5,30.39,West,275,0.0,0.0,95,0.00,CLR,,0.00,WeatherDisplay:10.37,2013-10-09 06:35:00,
2013-10-09 02:40:00,45.7,44.4,30.40,West,275,0.0,0.0,95,0.00,CLR,,0.00,WeatherDisplay:10.37,2013-10-09 06:40:00,
2013-10-09 02:45:00,45.7,44.4,30.40,West,275,0.0,0.0,95,0.00,CLR,,0.00,WeatherDisplay:10.37,2013-10-09 06:45:00,
2013-10-09 02:50:00,45.6,44.3,30.40,West,275,0.0,0.0,95,0.00,CLR,,0.00,WeatherDisplay:10.37,2013-10-09 06:50:00,
2013-10-09 02:55:00,45.5,44.2,30.40,West,275,0.0,0.0,95,0.00,CLR,,0.00,WeatherDisplay:10.37,2013-10-09 06:55:00,
2013-10-09 03:00:00,45.5,44.2,30.40,West,275,0.0,0.0,95,0.00,CLR,,0.00,WeatherDisplay:10.37,2013-10-09 07:00:00,
2013-10-09 03:05:00,45.5,44.2,30.40,West,275,0.0,0.0,95,0.00,CLR,,0.00,WeatherDisplay:10.37,2013-10-09 07:05:00,
2013-10-09 03:10:00,45.6,44.3,30.40,West,275,0.0,0.0,95,0.00,CLR,,0.00,WeatherDisplay:10.37,2013-10-09 07:10:00,
2013-10-09 03:15:00,45.5,44.2,30.40,West,275,0.0,0.0,95,0.00,CLR,,0.00,WeatherDisplay:10.37,2013-10-09 07:15:00,
2013-10-09 03:20:00,45.4,44.1,30.40,West,275,0.0,0.0,95,0.00,CLR,,0.00,WeatherDisplay:10.37,2013-10-09 07:20:00,
2013-10-09 03:25:00,45.4,44.1,30.40,West,275,0.0,0.0,95,0.00,CLR,,0.00,WeatherDisplay:10.37,2013-10-09 07:25:00,
2013-10-09 03:30:00,45.5,44.2,30.40,ESE,102,1.2,0.0,95,0.00,CLR,,0.00,WeatherDisplay:10.37,2013-10-09 07:30:00,
2013-10-09 03:35:00,45.5,44.2,30.40,West,280,2.3,2.3,95,0.00,CLR,,0.00,WeatherDisplay:10.37,2013-10-09 07:35:00,
2013-10-09 03:40:00,45.6,44.3,30.40,NW,323,2.8,2.8,95,0.00,CLR,,0.00,WeatherDisplay:10.37,2013-10-09 07:40:00,
2013-10-09 03:45:00,45.5,44.2,30.40,SW,226,0.0,0.0,95,0.00,CLR,,0.00,WeatherDisplay:10.37,2013-10-09 07:45:00,
2013-10-09 03:50:00,45.7,44.4,30.40,SW,226,0.0,0.0,95,0.00,CLR,,0.00,WeatherDisplay:10.37,2013-10-09 07:50:00,
2013-10-09 03:55:00,45.6,44.3,30.40,SW,226,0.0,0.0,95,0.00,CLR,,0.00,WeatherDisplay:10.37,2013-10-09 07:55:00,
2013-10-09 04:00:00,45.5,44.2,30.40,WNW,295,2.3,2.3,95,0.00,CLR,,0.00,WeatherDisplay:10.37,2013-10-09 08:00:00,
2013-10-09 04:05:00,45.4,44.1,30.40,WNW,288,2.3,2.3,95,0.00,CLR,,0.00,WeatherDisplay:10.37,2013-10-09 08:05:00,
2013-10-09 04:10:00,45.5,44.2,30.40,NW,318,3.5,3.5,95,0.00,CLR,,0.00,WeatherDisplay:10.37,2013-10-09 08:10:00,
2013-10-09 04:15:00,45.1,43.8,30.40,WNW,298,0.0,0.0,95,0.00,CLR,,0.00,WeatherDisplay:10.37,2013-10-09 08:15:00,
2013-10-09 04:20:00,45.2,43.9,30.40,WNW,298,0.0,0.0,95,0.00,CLR,,0.00,WeatherDisplay:10.37,2013-10-09 08:20:00,
2013-10-09 04:25:00,45.1,43.8,30.40,WNW,298,0.0,0.0,95,0.00,CLR,,0.00,WeatherDisplay:10.37,2013-10-09 08:25:00,
2013-10-09 04:30:00,45.0,43.7,30.40,WNW,298,0.0,0.0,95,0.00,CLR,,0.00,WeatherDisplay:10.37,2013-10-09 08:30:00,
2013-10-09 04:35:00,44.9,43.6,30.40,WNW,298,0.0,0.0,95,0.00,CLR,,0.00,WeatherDisplay:10.37,2013-10-09 08:35:00,
2013-10-09 04:40:00,45.0,43.7,30.40,WNW,298,0.0,0.0,95,0.00,CLR,,0.00,WeatherDisplay:10.37,2013-10-09 08:40:00,
2013-10-09 04:45:00,44.8,43.5,30.41,WNW,298,0.0,0.0,95,0.00,CLR,,0.00,WeatherDisplay:10.37,2013-10-09 08:45:00,
2013-10-09 04:50:00,44.5,43.2,30.41,WNW,298,0.0,0.0,95,0.00,CLR,,0.00,WeatherDisplay:10.37,2013-10-09 08:50:00,
2013-10-09 04:55:00,44.4,43.1,30.41,WNW,298,0.0,0.0,95,0.00,CLR,,0.00,WeatherDisplay:10.37,2013-10-09 08:55:00,
2013-10-09 05:00:00,44.4,43.1,30.41,WNW,298,0.0,0.0,95,0.00,CLR,,0.00,WeatherDisplay:10.37,2013-10-09 09:00:00,
2013-10-09 05:05:00,44.3,43.0,30.41,WNW,298,0.0,0.0,95,0.00,CLR,,0.00,WeatherDisplay:10.37,2013-10-09 09:05:00,
2013-10-09 05:10:00,44.1,42.8,30.41,WNW,298,0.0,0.0,95,0.00,CLR,,0.00,WeatherDisplay:10.37,2013-10-09 09:10:00,
2013-10-09 05:15:00,44.2,42.9,30.41,WNW,298,0.0,0.0,95,0.00,CLR,,0.00,WeatherDisplay:10.37,2013-10-09 09:15:00,
2013-10-09 05:20:00,44.1,42.8,30.41,WNW,298,0.0,0.0,95,0.00,CLR,,0.00,WeatherDisplay:10.37,2013-10-09 09:20:00,
2013-10-09 05:25:00,44.1,42.8,30.41,WNW,298,0.0,0.0,95,0.00,CLR,,0.00,WeatherDisplay:10.37,2013-10-09 09:25:00,
2013-10-09 05:30:00,44.1,42.8,30.41,WNW,298,0.0,0.0,95,0.00,CLR,,0.00,WeatherDisplay:10.37,2013-10-09 09:30:00,
2013-10-09 05:35:00,44.0,42.7,30.41,WNW,298,0.0,0.0,95,0.00,CLR,,0.00,WeatherDisplay:10.37,2013-10-09 09:35:00,
2013-10-09 05:40:00,44.1,42.8,30.41,WNW,298,0.0,0.0,95,0.00,CLR,,0.00,WeatherDisplay:10.37,2013-10-09 09:40:00,
2013-10-09 05:45:00,43.7,42.4,30.42,WNW,298,0.0,0.0,95,0.00,CLR,,0.00,WeatherDisplay:10.37,2013-10-09 09:45:00,
2013-10-09 05:50:00,43.7,42.4,30.42,WNW,298,0.0,0.0,95,0.00,CLR,,0.00,WeatherDisplay:10.37,2013-10-09 09:50:00,
2013-10-09 05:55:00,43.6,42.3,30.42,WNW,298,0.0,0.0,95,0.00,CLR,,0.00,WeatherDisplay:10.37,2013-10-09 09:55:00,
2013-10-09 06:00:00,43.6,42.3,30.42,WNW,298,0.0,0.0,95,0.00,CLR,,0.00,WeatherDisplay:10.37,2013-10-09 10:00:00,
2013-10-09 06:05:00,43.5,42.5,30.42,WNW,298,0.0,0.0,96,0.00,CLR,,0.00,WeatherDisplay:10.37,2013-10-09 10:05:00,
2013-10-09 06:10:00,43.5,42.5,30.42,WNW,298,0.0,0.0,96,0.00,CLR,,0.00,WeatherDisplay:10.37,2013-10-09 10:10:00,
2013-10-09 06:15:00,43.6,42.6,30.42,WNW,298,0.0,0.0,96,0.00,CLR,,0.00,WeatherDisplay:10.37,2013-10-09 10:15:00,
2013-10-09 06:20:00,43.2,42.2,30.42,WNW,298,0.0,0.0,96,0.00,CLR,,0.00,WeatherDisplay:10.37,2013-10-09 10:20:00,
2013-10-09 06:25:00,43.3,42.3,30.42,WNW,298,0.0,0.0,96,0.00,CLR,,0.00,WeatherDisplay:10.37,2013-10-09 10:25:00,
2013-10-09 06:30:00,43.2,42.2,30.42,WNW,298,0.0,0.0,96,0.00,CLR,,0.00,WeatherDisplay:10.37,2013-10-09 10:30:00,
2013-10-09 06:35:00,43.3,42.3,30.42,WNW,298,0.0,0.0,96,0.00,CLR,,0.00,WeatherDisplay:10.37,2013-10-09 10:35:00,
2013-10-09 06:40:00,42.8,41.8,30.42,WNW,298,0.0,0.0,96,0.00,CLR,,0.00,WeatherDisplay:10.37,2013-10-09 10:40:00,
2013-10-09 06:45:00,42.9,41.9,30.42,WNW,298,0.0,0.0,96,0.00,CLR,,0.00,WeatherDisplay:10.37,2013-10-09 10:45:00,
2013-10-09 06:50:00,43.0,42.0,30.43,WNW,298,0.0,0.0,96,0.00,CLR,,0.00,WeatherDisplay:10.37,2013-10-09 10:50:00,
2013-10-09 06:55:00,42.8,41.8,30.43,WNW,298,0.0,0.0,96,0.00,CLR,,0.00,WeatherDisplay:10.37,2013-10-09 10:55:00,
2013-10-09 07:00:00,42.8,41.8,30.43,WNW,298,0.0,0.0,96,0.00,CLR,,0.00,WeatherDisplay:10.37,2013-10-09 11:00:00,
2013-10-09 07:05:00,42.7,41.7,30.43,WNW,298,0.0,0.0,96,0.00,CLR,,0.00,WeatherDisplay:10.37,2013-10-09 11:05:00,
2013-10-09 07:10:00,42.9,41.9,30.43,WNW,298,0.0,0.0,96,0.00,CLR,,0.00,WeatherDisplay:10.37,2013-10-09 11:10:00,
2013-10-09 07:15:00,42.7,41.7,30.44,WNW,298,0.0,0.0,96,0.00,CLR,,0.00,WeatherDisplay:10.37,2013-10-09 11:15:00,
2013-10-09 07:20:00,42.9,41.9,30.44,WNW,298,0.0,0.0,96,0.00,CLR,,0.00,WeatherDisplay:10.37,2013-10-09 11:20:00,
2013-10-09 07:25:00,42.7,41.7,30.44,WNW,298,0.0,0.0,96,0.00,CLR,,0.00,WeatherDisplay:10.37,2013-10-09 11:25:00,
2013-10-09 07:30:00,42.8,41.8,30.44,WNW,298,0.0,0.0,96,0.00,CLR,,0.00,WeatherDisplay:10.37,2013-10-09 11:30:00,
2013-10-09 07:35:00,42.9,41.9,30.44,WNW,298,0.0,0.0,96,0.00,CLR,,0.00,WeatherDisplay:10.37,2013-10-09 11:35:00,
2013-10-09 07:40:00,43.0,42.0,30.44,WNW,298,0.0,0.0,96,0.00,CLR,,0.00,WeatherDisplay:10.37,2013-10-09 11:40:00,
2013-10-09 07:45:00,43.2,42.2,30.45,WNW,298,0.0,0.0,96,0.00,CLR,,0.00,WeatherDisplay:10.37,2013-10-09 11:45:00,
2013-10-09 07:50:00,43.1,42.1,30.45,WNW,298,0.0,0.0,96,0.00,CLR,,0.00,WeatherDisplay:10.37,2013-10-09 11:50:00,
2013-10-09 07:55:00,43.3,42.3,30.45,WNW,298,0.0,0.0,96,0.00,CLR,,0.00,WeatherDisplay:10.37,2013-10-09 11:55:00,
2013-10-09 08:00:00,43.8,42.8,30.45,WNW,298,0.0,0.0,96,0.00,CLR,,0.00,WeatherDisplay:10.37,2013-10-09 12:00:00,
2013-10-09 08:06:00,44.1,43.1,30.45,WNW,298,0.0,0.0,96,0.00,CLR,,0.00,WeatherDisplay:10.37,2013-10-09 12:06:00,
2013-10-09 08:11:00,44.3,43.3,30.45,ESE,109,1.2,1.2,96,0.00,CLR,,0.00,WeatherDisplay:10.37,2013-10-09 12:11:00,
2013-10-09 08:16:00,44.8,43.8,30.46,SE,144,0.0,0.0,96,0.00,CLR,,0.00,WeatherDisplay:10.37,2013-10-09 12:16:00,
2013-10-09 08:20:00,45.2,44.2,30.46,SE,131,2.3,2.3,96,0.00,CLR,,0.00,WeatherDisplay:10.37,2013-10-09 12:20:00,
2013-10-09 08:25:00,45.5,44.5,30.46,SE,131,0.0,0.0,96,0.00,CLR,,0.00,WeatherDisplay:10.37,2013-10-09 12:25:00,
2013-10-09 08:30:00,46.1,45.1,30.46,ESE,103,2.3,2.3,96,0.00,CLR,,0.00,WeatherDisplay:10.37,2013-10-09 12:30:00,
2013-10-09 08:35:00,46.4,45.4,30.46,ESE,110,2.3,0.0,96,0.00,CLR,,0.00,WeatherDisplay:10.37,2013-10-09 12:35:00,
2013-10-09 08:40:00,46.8,45.5,30.47,NE,54,3.4,3.4,95,0.00,CLR,,0.00,WeatherDisplay:10.37,2013-10-09 12:40:00,
2013-10-09 08:45:00,47.4,46.1,30.47,SE,143,4.1,4.1,95,0.00,CLR,,0.00,WeatherDisplay:10.37,2013-10-09 12:45:00,
2013-10-09 08:50:00,47.8,46.5,30.47,NE,40,1.2,0.0,95,0.00,CLR,,0.00,WeatherDisplay:10.37,2013-10-09 12:50:00,
2013-10-09 08:55:00,48.0,45.8,30.46,ENE,73,3.0,3.0,92,0.00,CLR,,0.00,WeatherDisplay:10.37,2013-10-09 12:55:00,
2013-10-09 09:00:00,48.4,46.2,30.46,ENE,78,2.3,2.3,92,0.00,CLR,,0.00,WeatherDisplay:10.37,2013-10-09 13:00:00,
2013-10-09 09:05:00,49.0,46.5,30.47,NE,48,3.7,3.7,91,0.00,CLR,,0.00,WeatherDisplay:10.37,2013-10-09 13:05:00,
2013-10-09 09:10:00,49.4,46.6,30.47,SE,136,2.7,2.7,90,0.00,CLR,,0.00,WeatherDisplay:10.37,2013-10-09 13:10:00,
2013-10-09 09:15:00,49.7,46.9,30.47,ESE,106,1.9,1.9,90,0.00,CLR,,0.00,WeatherDisplay:10.37,2013-10-09 13:15:00,
2013-10-09 09:20:00,49.8,46.7,30.47,SE,134,2.3,2.3,89,0.00,CLR,,0.00,WeatherDisplay:10.37,2013-10-09 13:20:00,
2013-10-09 09:25:00,49.9,46.8,30.47,ESE,103,2.3,2.3,89,0.00,CLR,,0.00,WeatherDisplay:10.37,2013-10-09 13:25:00,
2013-10-09 09:30:00,50.2,46.8,30.47,ESE,110,2.3,2.3,88,0.00,CLR,,0.00,WeatherDisplay:10.37,2013-10-09 13:30:00,
2013-10-09 09:35:00,50.7,47.0,30.48,ESE,116,3.5,3.5,87,0.00,CLR,,0.00,WeatherDisplay:10.37,2013-10-09 13:35:00,
2013-10-09 09:40:00,50.8,46.8,30.47,ESE,114,3.7,3.7,86,0.00,CLR,,0.00,WeatherDisplay:10.37,2013-10-09 13:40:00,
2013-10-09 09:45:00,51.2,47.2,30.47,SSE,148,3.7,3.7,86,0.00,CLR,,0.00,WeatherDisplay:10.37,2013-10-09 13:45:00,
2013-10-09 09:50:00,51.6,46.6,30.47,East,99,4.6,4.6,83,0.00,CLR,,0.00,WeatherDisplay:10.37,2013-10-09 13:50:00,
2013-10-09 09:55:00,52.3,47.6,30.47,SE,137,4.6,4.6,84,0.00,CLR,,0.00,WeatherDisplay:10.37,2013-10-09 13:55:00,
2013-10-09 10:00:00,52.6,47.0,30.46,ENE,58,4.8,4.8,81,0.00,CLR,,0.00,WeatherDisplay:10.37,2013-10-09 14:00:00,
2013-10-09 10:05:00,53.1,47.5,30.46,SE,128,4.6,4.6,81,0.00,CLR,,0.00,WeatherDisplay:10.37,2013-10-09 14:05:00,
2013-10-09 10:10:00,53.3,45.6,30.46,ESE,112,6.7,6.7,75,0.00,CLR,,0.00,WeatherDisplay:10.37,2013-10-09 14:10:00,
2013-10-09 10:15:00,53.8,46.4,30.46,South,171,5.8,5.8,76,0.00,CLR,,0.00,WeatherDisplay:10.37,2013-10-09 14:15:00,
2013-10-09 10:20:00,54.1,47.4,30.45,ESE,114,3.5,3.5,78,0.00,CLR,,0.00,WeatherDisplay:10.37,2013-10-09 14:20:00,
2013-10-09 10:25:00,54.3,48.0,30.45,SE,134,3.5,3.5,79,0.00,CLR,,0.00,WeatherDisplay:10.37,2013-10-09 14:25:00,
2013-10-09 10:30:00,54.5,47.1,30.45,ESE,104,3.5,3.5,76,0.00,CLR,,0.00,WeatherDisplay:10.37,2013-10-09 14:30:00,
2013-10-09 10:35:00,54.8,46.7,30.45,SE,130,4.6,4.6,74,0.00,CLR,,0.00,WeatherDisplay:10.37,2013-10-09 14:35:00,
2013-10-09 10:40:00,55.0,46.5,30.45,ESE,109,8.1,8.1,73,0.00,CLR,,0.00,WeatherDisplay:10.37,2013-10-09 14:40:00,
2013-10-09 10:45:00,55.5,48.1,30.45,East,88,7.3,7.3,76,0.00,CLR,,0.00,WeatherDisplay:10.37,2013-10-09 14:45:00,
2013-10-09 10:50:00,55.6,46.0,30.45,East,90,5.2,5.2,70,0.00,CLR,,0.00,WeatherDisplay:10.37,2013-10-09 14:50:00,
2013-10-09 10:55:00,55.9,45.5,30.44,SE,144,9.2,9.2,68,0.00,CLR,,0.00,WeatherDisplay:10.37,2013-10-09 14:55:00,
2013-10-09 11:00:00,56.0,45.2,30.44,SE,124,4.7,4.7,67,0.00,CLR,,0.00,WeatherDisplay:10.37,2013-10-09 15:00:00,
2013-10-09 11:05:00,56.0,45.6,30.44,SSE,157,4.8,4.8,68,0.00,CLR,,0.00,WeatherDisplay:10.37,2013-10-09 15:05:00,
2013-10-09 11:10:00,56.3,45.9,30.43,East,90,3.7,3.7,68,0.00,CLR,,0.00,WeatherDisplay:10.37,2013-10-09 15:10:00,
2013-10-09 11:15:00,56.5,45.3,30.42,ESE,120,5.8,5.8,66,0.00,CLR,,0.00,WeatherDisplay:10.37,2013-10-09 15:15:00,
2013-10-09 11:20:00,56.7,44.7,30.42,SE,140,7.3,7.3,64,0.00,CLR,,0.00,WeatherDisplay:10.37,2013-10-09 15:20:00,
2013-10-09 11:25:00,57.2,43.5,30.42,SE,124,4.6,4.6,60,0.00,CLR,,0.00,WeatherDisplay:10.37,2013-10-09 15:25:00,
2013-10-09 11:30:00,57.2,43.5,30.42,South,172,4.6,4.6,60,0.00,CLR,,0.00,WeatherDisplay:10.37,2013-10-09 15:30:00,
2013-10-09 11:35:00,57.2,44.3,30.42,SSE,165,2.3,2.3,62,0.00,CLR,,0.00,WeatherDisplay:10.37,2013-10-09 15:35:00,
2013-10-09 11:40:00,57.7,43.9,30.42,ESE,102,5.8,5.8,60,0.00,CLR,,0.00,WeatherDisplay:10.37,2013-10-09 15:40:00,
2013-10-09 11:45:00,58.0,44.7,30.42,SSE,157,7.2,7.2,61,0.00,CLR,,0.00,WeatherDisplay:10.37,2013-10-09 15:45:00,
2013-10-09 11:50:00,58.2,44.8,30.42,East,80,5.8,5.8,61,0.00,CLR,,0.00,WeatherDisplay:10.37,2013-10-09 15:50:00,
2013-10-09 11:55:00,58.3,44.1,30.42,ESE,121,3.7,3.7,59,0.00,CLR,,0.00,WeatherDisplay:10.37,2013-10-09 15:55:00,
2013-10-09 12:01:00,58.2,43.5,30.41,ESE,117,5.1,5.1,58,0.00,CLR,,0.00,WeatherDisplay:10.37,2013-10-09 16:01:00,
2013-10-09 12:06:00,58.4,44.2,30.41,East,85,3.0,3.0,59,0.00,CLR,,0.00,WeatherDisplay:10.37,2013-10-09 16:06:00,
2013-10-09 12:11:00,58.5,44.7,30.41,SE,133,6.3,6.3,60,0.00,CLR,,0.00,WeatherDisplay:10.37,2013-10-09 16:11:00,
2013-10-09 12:16:00,58.8,44.5,30.41,SSE,158,0.0,0.0,59,0.00,CLR,,0.00,WeatherDisplay:10.37,2013-10-09 16:16:00,
2013-10-09 12:21:00,59.3,45.0,30.41,SSE,165,1.0,0.0,59,0.00,CLR,,0.00,WeatherDisplay:10.37,2013-10-09 16:21:00,
2013-10-09 12:26:00,59.5,43.8,30.41,ENE,68,4.7,4.7,56,0.00,CLR,,0.00,WeatherDisplay:10.37,2013-10-09 16:26:00,
2013-10-09 12:31:00,59.5,44.7,30.41,SE,133,3.5,3.5,58,0.00,CLR,,0.00,WeatherDisplay:10.37,2013-10-09 16:31:00,
2013-10-09 12:36:00,59.9,45.1,30.41,ESE,123,0.0,0.0,58,0.00,CLR,,0.00,WeatherDisplay:10.37,2013-10-09 16:36:00,
2013-10-09 12:41:00,59.8,45.0,30.41,NE,56,2.3,2.3,58,0.00,CLR,,0.00,WeatherDisplay:10.37,2013-10-09 16:41:00,
2013-10-09 12:46:00,60.0,43.3,30.40,East,80,3.5,3.5,54,0.00,CLR,,0.00,WeatherDisplay:10.37,2013-10-09 16:46:00,
2013-10-09 12:51:00,60.0,44.3,30.40,East,89,5.9,5.9,56,0.00,CLR,,0.00,WeatherDisplay:10.37,2013-10-09 16:51:00,
2013-10-09 12:56:00,59.9,44.2,30.40,SSE,151,3.7,3.7,56,0.00,CLR,,0.00,WeatherDisplay:10.37,2013-10-09 16:56:00,
2013-10-09 13:01:00,59.8,43.6,30.41,SE,133,3.5,3.5,55,0.00,CLR,,0.00,WeatherDisplay:10.37,2013-10-09 17:01:00,
2013-10-09 13:06:00,59.8,43.6,30.41,ESE,110,4.2,4.2,55,0.00,CLR,,0.00,WeatherDisplay:10.37,2013-10-09 17:06:00,
2013-10-09 13:11:00,60.0,43.8,30.40,ENE,69,4.7,4.7,55,0.00,CLR,,0.00,WeatherDisplay:10.37,2013-10-09 17:11:00,
2013-10-09 13:16:00,59.8,44.1,30.40,SE,140,4.8,4.8,56,0.00,CLR,,0.00,WeatherDisplay:10.37,2013-10-09 17:16:00,
2013-10-09 13:22:00,59.7,43.1,30.39,East,99,4.6,4.6,54,0.00,CLR,,0.00,WeatherDisplay:10.37,2013-10-09 17:22:00,
2013-10-09 13:27:00,59.9,44.2,30.39,ESE,114,1.2,1.2,56,0.00,CLR,,0.00,WeatherDisplay:10.37,2013-10-09 17:27:00,
2013-10-09 13:32:00,59.9,44.7,30.39,NNE,24,2.8,2.8,57,0.00,CLR,,0.00,WeatherDisplay:10.37,2013-10-09 17:32:00,
2013-10-09 13:37:00,60.3,44.1,30.39,ESE,106,5.0,5.0,55,0.00,CLR,,0.00,WeatherDisplay:10.37,2013-10-09 17:37:00,
2013-10-09 13:42:00,60.6,45.3,30.39,ESE,102,0.0,0.0,57,0.00,CLR,,0.00,WeatherDisplay:10.37,2013-10-09 17:42:00,
2013-10-09 13:47:00,60.7,45.9,30.38,ESE,102,0.0,0.0,58,0.00,CLR,,0.00,WeatherDisplay:10.37,2013-10-09 17:47:00,
2013-10-09 13:52:00,61.0,46.1,30.39,ESE,102,4.5,4.5,58,0.00,CLR,,0.00,WeatherDisplay:10.37,2013-10-09 17:52:00,
2013-10-09 13:57:00,61.1,45.3,30.38,ESE,102,0.0,0.0,56,0.00,CLR,,0.00,WeatherDisplay:10.37,2013-10-09 17:57:00,
2013-10-09 14:02:00,60.9,45.1,30.38,ESE,102,0.0,0.0,56,0.00,CLR,,0.00,WeatherDisplay:10.37,2013-10-09 18:02:00,
2013-10-09 14:07:00,61.0,46.6,30.38,ESE,114,0.0,0.0,59,0.00,CLR,,0.00,WeatherDisplay:10.37,2013-10-09 18:07:00,
2013-10-09 14:12:00,61.0,44.3,30.38,East,92,1.2,0.0,54,0.00,CLR,,0.00,WeatherDisplay:10.37,2013-10-09 18:12:00,
2013-10-09 14:17:00,60.8,45.5,30.38,ENE,78,2.4,2.4,57,0.00,CLR,,0.00,WeatherDisplay:10.37,2013-10-09 18:17:00,
2013-10-09 14:22:00,60.7,44.9,30.39,ESE,116,3.5,3.5,56,0.00,CLR,,0.00,WeatherDisplay:10.37,2013-10-09 18:22:00,
2013-10-09 14:27:00,60.7,45.4,30.38,ENE,61,0.0,0.0,57,0.00,CLR,,0.00,WeatherDisplay:10.37,2013-10-09 18:27:00,
2013-10-09 14:32:00,60.5,44.8,30.38,East,85,5.2,5.2,56,0.00,CLR,,0.00,WeatherDisplay:10.37,2013-10-09 18:32:00,
2013-10-09 14:37:00,60.5,43.8,30.38,East,92,2.5,2.5,54,0.00,CLR,,0.00,WeatherDisplay:10.37,2013-10-09 18:37:00,
2013-10-09 14:42:00,60.5,44.8,30.38,East,88,4.6,4.6,56,0.00,CLR,,0.00,WeatherDisplay:10.37,2013-10-09 18:42:00,
2013-10-09 14:47:00,60.8,45.0,30.38,ESE,104,3.2,3.2,56,0.00,CLR,,0.00,WeatherDisplay:10.37,2013-10-09 18:47:00,
2013-10-09 14:52:00,61.1,43.9,30.38,East,95,2.6,2.6,53,0.00,CLR,,0.00,WeatherDisplay:10.37,2013-10-09 18:52:00,
2013-10-09 14:57:00,61.3,45.5,30.38,East,95,0.0,0.0,56,0.00,CLR,,0.00,WeatherDisplay:10.37,2013-10-09 18:57:00,
2013-10-09 15:02:00,61.3,46.0,30.38,ESE,120,5.2,5.2,57,0.00,CLR,,0.00,WeatherDisplay:10.37,2013-10-09 19:02:00,
2013-10-09 15:07:00,61.6,46.2,30.38,NNE,27,1.2,0.0,57,0.00,CLR,,0.00,WeatherDisplay:10.37,2013-10-09 19:07:00,
2013-10-09 15:12:00,61.6,45.8,30.38,SE,130,0.0,0.0,56,0.00,CLR,,0.00,WeatherDisplay:10.37,2013-10-09 19:12:00,
2013-10-09 15:17:00,61.6,46.2,30.38,SE,130,0.0,0.0,57,0.00,CLR,,0.00,WeatherDisplay:10.37,2013-10-09 19:17:00,
2013-10-09 15:22:00,61.5,45.7,30.38,SE,138,0.0,0.0,56,0.00,CLR,,0.00,WeatherDisplay:10.37,2013-10-09 19:22:00,
2013-10-09 15:27:00,61.4,46.1,30.37,SE,140,2.4,0.0,57,0.00,CLR,,0.00,WeatherDisplay:10.37,2013-10-09 19:27:00,
2013-10-09 15:32:00,61.3,46.4,30.37,SE,140,2.4,2.4,58,0.00,CLR,,0.00,WeatherDisplay:10.37,2013-10-09 19:32:00,
2013-10-09 15:37:00,60.9,45.1,30.37,SE,140,0.0,0.0,56,0.00,CLR,,0.00,WeatherDisplay:10.37,2013-10-09 19:37:00,
2013-10-09 15:42:00,60.9,45.6,30.37,East,89,2.9,2.9,57,0.00,CLR,,0.00,WeatherDisplay:10.37,2013-10-09 19:42:00,
2013-10-09 15:47:00,60.7,46.8,30.37,ESE,116,0.0,0.0,60,0.00,CLR,,0.00,WeatherDisplay:10.37,2013-10-09 19:47:00,
2013-10-09 15:52:00,60.7,46.3,30.37,ESE,116,0.0,0.0,59,0.00,CLR,,0.00,WeatherDisplay:10.37,2013-10-09 19:52:00,
2013-10-09 15:57:00,60.7,46.3,30.37,ESE,116,0.0,0.0,59,0.00,CLR,,0.00,WeatherDisplay:10.37,2013-10-09 19:57:00,
2013-10-09 16:02:00,60.6,45.8,30.37,ESE,102,1.3,1.3,58,0.00,CLR,,0.00,WeatherDisplay:10.37,2013-10-09 20:02:00,
2013-10-09 16:07:00,60.8,47.3,30.36,SSE,151,2.3,2.3,61,0.00,CLR,,0.00,WeatherDisplay:10.37,2013-10-09 20:07:00,
2013-10-09 16:12:00,60.8,46.4,30.36,SSE,151,0.0,0.0,59,0.00,CLR,,0.00,WeatherDisplay:10.37,2013-10-09 20:12:00,
2013-10-09 16:18:00,61.0,47.0,30.36,SSE,151,0.0,0.0,60,0.00,CLR,,0.00,WeatherDisplay:10.37,2013-10-09 20:18:00,
2013-10-09 16:23:00,60.8,46.0,30.36,East,88,3.5,3.5,58,0.00,CLR,,0.00,WeatherDisplay:10.37,2013-10-09 20:23:00,
2013-10-09 16:28:00,61.0,46.6,30.36,SE,127,2.3,2.3,59,0.00,CLR,,0.00,WeatherDisplay:10.37,2013-10-09 20:28:00,
2013-10-09 16:33:00,60.6,45.8,30.36,SE,124,2.3,2.3,58,0.00,CLR,,0.00,WeatherDisplay:10.37,2013-10-09 20:33:00,
2013-10-09 16:38:00,60.8,46.4,30.36,SE,124,0.0,0.0,59,0.00,CLR,,0.00,WeatherDisplay:10.37,2013-10-09 20:38:00,
2013-10-09 16:43:00,60.7,46.3,30.36,SE,124,0.0,0.0,59,0.00,CLR,,0.00,WeatherDisplay:10.37,2013-10-09 20:43:00,
2013-10-09 16:48:00,60.4,46.9,30.36,SE,124,0.0,0.0,61,0.00,CLR,,0.00,WeatherDisplay:10.37,2013-10-09 20:48:00,
2013-10-09 16:53:00,60.4,47.4,30.36,SE,124,0.0,0.0,62,0.00,CLR,,0.00,WeatherDisplay:10.37,2013-10-09 20:53:00,
2013-10-09 16:58:00,60.1,47.9,30.36,SE,124,0.0,0.0,64,0.00,CLR,,0.00,WeatherDisplay:10.37,2013-10-09 20:58:00,
2013-10-09 17:03:00,60.0,47.4,30.36,SE,136,0.0,0.0,63,0.00,CLR,,0.00,WeatherDisplay:10.37,2013-10-09 21:03:00,
2013-10-09 17:08:00,60.0,48.2,30.36,SE,136,0.0,0.0,65,0.00,CLR,,0.00,WeatherDisplay:10.37,2013-10-09 21:08:00,
2013-10-09 17:13:00,59.6,48.3,30.36,SE,136,0.0,0.0,66,0.00,CLR,,0.00,WeatherDisplay:10.37,2013-10-09 21:13:00,
2013-10-09 17:18:00,59.7,48.4,30.36,SE,136,0.0,0.0,66,0.00,CLR,,0.00,WeatherDisplay:10.37,2013-10-09 21:18:00,
2013-10-09 17:23:00,59.5,47.8,30.36,SE,136,0.0,0.0,65,0.00,CLR,,0.00,WeatherDisplay:10.37,2013-10-09 21:23:00,
2013-10-09 17:28:00,59.4,47.7,30.37,SE,136,0.0,0.0,65,0.00,CLR,,0.00,WeatherDisplay:10.37,2013-10-09 21:28:00,
2013-10-09 17:33:00,59.3,48.0,30.36,SE,136,0.0,0.0,66,0.00,CLR,,0.00,WeatherDisplay:10.37,2013-10-09 21:33:00,
2013-10-09 17:38:00,59.3,48.0,30.36,SE,136,0.0,0.0,66,0.00,CLR,,0.00,WeatherDisplay:10.37,2013-10-09 21:38:00,
2013-10-09 17:43:00,59.2,48.3,30.36,SE,136,0.0,0.0,67,0.00,CLR,,0.00,WeatherDisplay:10.37,2013-10-09 21:43:00,
2013-10-09 17:48:00,59.1,48.2,30.36,SE,136,0.0,0.0,67,0.00,CLR,,0.00,WeatherDisplay:10.37,2013-10-09 21:48:00,
2013-10-09 17:53:00,58.6,48.1,30.36,SE,136,0.0,0.0,68,0.00,CLR,,0.00,WeatherDisplay:10.37,2013-10-09 21:53:00,
2013-10-09 17:58:00,58.6,48.9,30.36,SE,136,0.0,0.0,70,0.00,CLR,,0.00,WeatherDisplay:10.37,2013-10-09 21:58:00,
2013-10-09 18:03:00,58.4,49.4,30.35,SE,136,0.0,0.0,72,0.00,CLR,,0.00,WeatherDisplay:10.37,2013-10-09 22:03:00,
2013-10-09 18:29:00,56.3,49.2,30.35,North,0,0.0,0.0,77,0.00,CLR,,0.00,WeatherDisplay:10.37,2013-10-09 22:29:00,
2013-10-09 18:34:00,56.1,49.4,30.35,North,0,0.0,0.0,78,0.00,CLR,,0.00,WeatherDisplay:10.37,2013-10-09 22:34:00,
2013-10-09 18:40:00,55.5,49.1,30.35,North,0,0.0,0.0,79,0.00,CLR,,0.00,WeatherDisplay:10.37,2013-10-09 22:40:00,
2013-10-09 18:45:00,55.2,49.2,30.36,North,0,0.0,0.0,80,0.00,CLR,,0.00,WeatherDisplay:10.37,2013-10-09 22:45:00,
2013-10-09 18:50:00,54.9,48.9,30.35,SE,126,0.3,0.3,80,0.00,CLR,,0.00,WeatherDisplay:10.37,2013-10-09 22:50:00,
2013-10-09 18:55:00,54.6,48.9,30.36,SE,126,0.0,0.0,81,0.00,CLR,,0.00,WeatherDisplay:10.37,2013-10-09 22:55:00,
2013-10-09 19:00:00,54.3,48.6,30.35,SE,126,0.0,0.0,81,0.00,CLR,,0.00,WeatherDisplay:10.37,2013-10-09 23:00:00,
2013-10-09 19:05:00,54.1,48.8,30.35,ENE,65,1.2,0.0,82,0.00,CLR,,0.00,WeatherDisplay:10.37,2013-10-09 23:05:00,
2013-10-09 19:10:00,53.9,48.9,30.35,ENE,65,0.0,0.0,83,0.00,CLR,,0.00,WeatherDisplay:10.37,2013-10-09 23:10:00,
2013-10-09 19:15:00,53.7,48.7,30.35,ENE,65,0.0,0.0,83,0.00,CLR,,0.00,WeatherDisplay:10.37,2013-10-09 23:15:00,
2013-10-09 19:20:00,53.4,48.4,30.35,ENE,65,0.0,0.0,83,0.00,CLR,,0.00,WeatherDisplay:10.37,2013-10-09 23:20:00,
2013-10-09 19:25:00,53.3,48.3,30.35,ENE,65,0.0,0.0,83,0.00,CLR,,0.00,WeatherDisplay:10.37,2013-10-09 23:25:00,
2013-10-09 19:30:00,52.9,47.9,30.34,ENE,65,0.0,0.0,83,0.00,CLR,,0.00,WeatherDisplay:10.37,2013-10-09 23:30:00,
2013-10-09 19:35:00,52.8,47.8,30.34,ENE,65,0.0,0.0,83,0.00,CLR,,0.00,WeatherDisplay:10.37,2013-10-09 23:35:00,
2013-10-09 19:40:00,52.7,47.7,30.34,ENE,65,0.0,0.0,83,0.00,CLR,,0.00,WeatherDisplay:10.37,2013-10-09 23:40:00,
2013-10-09 19:45:00,52.7,47.7,30.34,ENE,65,0.0,0.0,83,0.00,CLR,,0.00,WeatherDisplay:10.37,2013-10-09 23:45:00,
2013-10-09 19:50:00,52.6,47.9,30.35,ENE,65,0.0,0.0,84,0.00,CLR,,0.00,WeatherDisplay:10.37,2013-10-09 23:50:00,
2013-10-09 19:55:00,52.6,47.9,30.35,ENE,65,0.0,0.0,84,0.00,CLR,,0.00,WeatherDisplay:10.37,2013-10-09 23:55:00,
2013-10-09 20:00:00,52.5,48.2,30.35,ENE,65,0.0,0.0,85,0.00,CLR,,0.00,WeatherDisplay:10.37,2013-10-10 00:00:00,
2013-10-09 20:05:00,52.2,47.9,30.35,ENE,65,0.0,0.0,85,0.00,CLR,,0.00,WeatherDisplay:10.37,2013-10-10 00:05:00,
2013-10-09 20:10:00,52.0,47.7,30.35,ENE,65,0.0,0.0,85,0.00,CLR,,0.00,WeatherDisplay:10.37,2013-10-10 00:10:00,
2013-10-09 20:15:00,51.8,47.5,30.35,NNE,25,0.0,0.0,85,0.00,CLR,,0.00,WeatherDisplay:10.37,2013-10-10 00:15:00,
2013-10-09 20:20:00,51.6,47.3,30.35,NNE,25,0.0,0.0,85,0.00,CLR,,0.00,WeatherDisplay:10.37,2013-10-10 00:20:00,
2013-10-09 20:25:00,51.7,47.7,30.35,NNE,25,0.0,0.0,86,0.00,CLR,,0.00,WeatherDisplay:10.37,2013-10-10 00:25:00,
2013-10-09 20:30:00,51.3,47.3,30.35,ESE,120,0.0,0.0,86,0.00,CLR,,0.00,WeatherDisplay:10.37,2013-10-10 00:30:00,
2013-10-09 20:35:00,51.3,47.3,30.35,NE,56,0.2,0.0,86,0.00,CLR,,0.00,WeatherDisplay:10.37,2013-10-10 00:35:00,
2013-10-09 20:40:00,51.3,47.6,30.35,NE,56,0.0,0.0,87,0.00,CLR,,0.00,WeatherDisplay:10.37,2013-10-10 00:40:00,
2013-10-09 20:45:00,51.3,47.6,30.35,East,90,2.3,2.3,87,0.00,CLR,,0.00,WeatherDisplay:10.37,2013-10-10 00:45:00,
2013-10-09 20:50:00,51.2,47.5,30.35,East,90,0.0,0.0,87,0.00,CLR,,0.00,WeatherDisplay:10.37,2013-10-10 00:50:00,
2013-10-09 20:55:00,51.2,47.5,30.35,ENE,78,1.6,1.6,87,0.00,CLR,,0.00,WeatherDisplay:10.37,2013-10-10 00:55:00,
2013-10-09 21:00:00,51.2,47.5,30.35,ENE,78,0.0,0.0,87,0.00,CLR,,0.00,WeatherDisplay:10.37,2013-10-10 01:00:00,
2013-10-09 21:05:00,51.2,47.5,30.35,East,92,0.0,0.0,87,0.00,CLR,,0.00,WeatherDisplay:10.37,2013-10-10 01:05:00,
2013-10-09 21:10:00,51.2,47.5,30.35,East,80,1.3,1.3,87,0.00,CLR,,0.00,WeatherDisplay:10.37,2013-10-10 01:10:00,
2013-10-09 21:15:00,51.1,47.4,30.35,East,86,0.0,0.0,87,0.00,CLR,,0.00,WeatherDisplay:10.37,2013-10-10 01:15:00,
2013-10-09 21:20:00,50.9,47.2,30.35,North,0,2.3,0.0,87,0.00,CLR,,0.00,WeatherDisplay:10.37,2013-10-10 01:20:00,
2013-10-09 21:25:00,51.0,47.3,30.35,North,0,0.0,0.0,87,0.00,CLR,,0.00,WeatherDisplay:10.37,2013-10-10 01:25:00,
2013-10-09 21:30:00,50.8,47.4,30.35,ENE,62,0.0,0.0,88,0.00,CLR,,0.00,WeatherDisplay:10.37,2013-10-10 01:30:00,
2013-10-09 21:35:00,50.7,47.3,30.35,ENE,62,0.0,0.0,88,0.00,CLR,,0.00,WeatherDisplay:10.37,2013-10-10 01:35:00,
2013-10-09 21:40:00,50.6,47.2,30.35,ENE,62,0.0,0.0,88,0.00,CLR,,0.00,WeatherDisplay:10.37,2013-10-10 01:40:00,
2013-10-09 21:45:00,50.5,47.1,30.36,ENE,62,0.0,0.0,88,0.00,CLR,,0.00,WeatherDisplay:10.37,2013-10-10 01:45:00,
2013-10-09 21:51:00,50.3,47.2,30.36,ENE,62,0.0,0.0,89,0.00,CLR,,0.00,WeatherDisplay:10.37,2013-10-10 01:51:00,
2013-10-09 21:56:00,50.5,47.4,30.36,ENE,62,0.0,0.0,89,0.00,CLR,,0.00,WeatherDisplay:10.37,2013-10-10 01:56:00,
2013-10-09 22:01:00,50.3,47.2,30.36,ENE,62,0.0,0.0,89,0.00,CLR,,0.00,WeatherDisplay:10.37,2013-10-10 02:01:00,
2013-10-09 22:06:00,50.3,47.2,30.36,ENE,62,0.0,0.0,89,0.00,CLR,,0.00,WeatherDisplay:10.37,2013-10-10 02:06:00,
2013-10-09 22:11:00,50.3,47.5,30.36,ENE,62,0.0,0.0,90,0.00,CLR,,0.00,WeatherDisplay:10.37,2013-10-10 02:11:00,
2013-10-09 22:16:00,50.3,47.5,30.36,ENE,62,0.0,0.0,90,0.00,CLR,,0.00,WeatherDisplay:10.37,2013-10-10 02:16:00,
2013-10-09 22:21:00,50.4,47.6,30.36,ENE,62,0.0,0.0,90,0.00,CLR,,0.00,WeatherDisplay:10.37,2013-10-10 02:21:00,
2013-10-09 22:26:00,50.3,47.5,30.36,ENE,62,0.0,0.0,90,0.00,CLR,,0.00,WeatherDisplay:10.37,2013-10-10 02:26:00,
2013-10-09 22:31:00,50.3,47.5,30.36,ENE,62,0.0,0.0,90,0.00,CLR,,0.00,WeatherDisplay:10.37,2013-10-10 02:31:00,
2013-10-09 22:36:00,50.6,48.1,30.36,ENE,62,0.0,0.0,91,0.00,CLR,,0.00,WeatherDisplay:10.37,2013-10-10 02:36:00,
2013-10-09 22:41:00,50.6,48.1,30.36,ESE,116,2.4,2.4,91,0.00,CLR,,0.00,WeatherDisplay:10.37,2013-10-10 02:41:00,
2013-10-09 22:46:00,50.5,48.0,30.36,ESE,106,2.9,2.9,91,0.00,CLR,,0.00,WeatherDisplay:10.37,2013-10-10 02:46:00,
2013-10-09 22:51:00,50.4,47.9,30.36,East,90,2.4,2.4,91,0.00,CLR,,0.00,WeatherDisplay:10.37,2013-10-10 02:51:00,
2013-10-09 22:56:00,50.4,47.6,30.36,ESE,110,2.3,2.3,90,0.00,CLR,,0.00,WeatherDisplay:10.37,2013-10-10 02:56:00,
2013-10-09 23:01:00,50.6,47.8,30.37,ESE,104,3.5,3.5,90,0.00,CLR,,0.00,WeatherDisplay:10.37,2013-10-10 03:01:00,
2013-10-09 23:06:00,50.6,47.8,30.37,ESE,107,3.5,3.5,90,0.00,CLR,,0.00,WeatherDisplay:10.37,2013-10-10 03:06:00,
2013-10-09 23:11:00,50.7,47.6,-100.00,North,0,3.6,3.6,89,0.00,CLR,,0.00,WeatherDisplay:10.37,2013-10-10 03:11:00,
2013-10-09 23:16:00,50.5,47.4,30.36,North,0,0.0,0.0,89,0.00,CLR,,0.00,WeatherDisplay:10.37,2013-10-10 03:16:00,
2013-10-09 23:21:00,50.4,46.7,30.36,North,0,0.0,0.0,87,0.00,CLR,,0.00,WeatherDisplay:10.37,2013-10-10 03:21:00,
2013-10-09 23:26:00,50.6,46.9,30.36,North,0,0.0,0.0,87,0.00,CLR,,0.00,WeatherDisplay:10.37,2013-10-10 03:26:00,
2013-10-09 23:31:00,50.7,47.0,30.36,North,0,0.0,0.0,87,0.00,CLR,,0.00,WeatherDisplay:10.37,2013-10-10 03:31:00,
2013-10-09 23:36:00,50.9,47.2,30.36,North,0,0.0,0.0,87,0.00,CLR,,0.00,WeatherDisplay:10.37,2013-10-10 03:36:00,
2013-10-09 23:41:00,50.7,47.3,30.36,North,0,0.0,0.0,88,0.00,CLR,,0.00,WeatherDisplay:10.37,2013-10-10 03:41:00,
2013-10-09 23:46:00,50.4,47.0,30.36,North,0,0.0,0.0,88,0.00,CLR,,0.00,WeatherDisplay:10.37,2013-10-10 03:46:00,
2013-10-09 23:51:00,50.2,46.8,30.36,North,0,0.0,0.0,88,0.00,CLR,,0.00,WeatherDisplay:10.37,2013-10-10 03:51:00,
2013-10-09 23:56:00,50.1,47.0,30.36,North,0,0.0,0.0,89,0.00,CLR,,0.00,WeatherDisplay:10.37,2013-10-10 03:56:00,